sensor_id;sensor_type;location;lat;lon;timestamp;P1;durP1;ratioP1;P2;durP2;ratioP2
45694;SDS011;31408;45.468;9.124;2022-09-27T00:00:24;10.68;;;5.07;;
45694;SDS011;31408;45.468;9.124;2022-09-27T00:02:49;6.65;;;4.20;;
45694;SDS011;31408;45.468;9.124;2022-09-27T00:05:15;9.82;;;5.95;;
45694;SDS011;31408;45.468;9.124;2022-09-27T00:07:41;8.45;;;4.85;;
45694;SDS011;31408;45.468;9.124;2022-09-27T00:10:07;8.48;;;4.90;;
45694;SDS011;31408;45.468;9.124;2022-09-27T00:12:33;7.65;;;5.10;;
45694;SDS011;31408;45.468;9.124;2022-09-27T00:14:58;11.55;;;5.18;;
45694;SDS011;31408;45.468;9.124;2022-09-27T00:17:24;11.05;;;5.22;;
45694;SDS011;31408;45.468;9.124;2022-09-27T00:19:50;12.05;;;5.65;;
45694;SDS011;31408;45.468;9.124;2022-09-27T00:22:15;8.65;;;5.00;;
45694;SDS011;31408;45.468;9.124;2022-09-27T00:24:41;9.82;;;5.68;;
45694;SDS011;31408;45.468;9.124;2022-09-27T00:27:06;10.90;;;6.20;;
45694;SDS011;31408;45.468;9.124;2022-09-27T00:29:31;13.95;;;6.38;;
45694;SDS011;31408;45.468;9.124;2022-09-27T00:31:57;13.02;;;6.03;;
45694;SDS011;31408;45.468;9.124;2022-09-27T00:34:23;12.35;;;6.03;;
45694;SDS011;31408;45.468;9.124;2022-09-27T00:36:49;10.90;;;6.40;;
45694;SDS011;31408;45.468;9.124;2022-09-27T00:39:14;14.90;;;6.63;;
45694;SDS011;31408;45.468;9.124;2022-09-27T00:41:40;13.90;;;6.45;;
45694;SDS011;31408;45.468;9.124;2022-09-27T00:51:44;10.90;;;5.43;;
45694;SDS011;31408;45.468;9.124;2022-09-27T00:54:12;12.07;;;6.20;;
45694;SDS011;31408;45.468;9.124;2022-09-27T00:56:39;11.23;;;6.45;;
45694;SDS011;31408;45.468;9.124;2022-09-27T00:59:13;12.95;;;6.63;;
45694;SDS011;31408;45.468;9.124;2022-09-27T01:01:39;11.00;;;6.13;;
45694;SDS011;31408;45.468;9.124;2022-09-27T01:04:06;11.60;;;6.32;;
45694;SDS011;31408;45.468;9.124;2022-09-27T01:06:32;11.85;;;6.68;;
45694;SDS011;31408;45.468;9.124;2022-09-27T01:08:57;12.02;;;6.28;;
45694;SDS011;31408;45.468;9.124;2022-09-27T01:11:42;11.50;;;6.72;;
45694;SDS011;31408;45.468;9.124;2022-09-27T01:22:19;11.18;;;6.28;;
45694;SDS011;31408;45.468;9.124;2022-09-27T01:35:02;15.35;;;8.23;;
45694;SDS011;31408;45.468;9.124;2022-09-27T01:37:38;10.82;;;6.68;;
45694;SDS011;31408;45.468;9.124;2022-09-27T01:40:19;15.70;;;8.40;;
45694;SDS011;31408;45.468;9.124;2022-09-27T01:43:26;14.38;;;8.13;;
45694;SDS011;31408;45.468;9.124;2022-09-27T01:45:55;14.35;;;7.85;;
45694;SDS011;31408;45.468;9.124;2022-09-27T01:48:50;11.77;;;6.95;;
45694;SDS011;31408;45.468;9.124;2022-09-27T01:51:24;13.75;;;8.32;;
45694;SDS011;31408;45.468;9.124;2022-09-27T01:53:52;13.07;;;7.32;;
45694;SDS011;31408;45.468;9.124;2022-09-27T01:56:29;14.00;;;7.32;;
45694;SDS011;31408;45.468;9.124;2022-09-27T02:01:44;13.80;;;8.35;;
45694;SDS011;31408;45.468;9.124;2022-09-27T02:04:12;16.75;;;8.00;;
45694;SDS011;31408;45.468;9.124;2022-09-27T02:07:14;15.65;;;7.85;;
45694;SDS011;31408;45.468;9.124;2022-09-27T02:10:15;14.02;;;7.32;;
45694;SDS011;31408;45.468;9.124;2022-09-27T02:13:09;16.40;;;7.43;;
45694;SDS011;31408;45.468;9.124;2022-09-27T02:15:45;16.75;;;8.70;;
45694;SDS011;31408;45.468;9.124;2022-09-27T02:18:39;14.25;;;7.97;;
45694;SDS011;31408;45.468;9.124;2022-09-27T02:21:07;11.48;;;6.75;;
45694;SDS011;31408;45.468;9.124;2022-09-27T02:23:38;12.82;;;7.22;;
45694;SDS011;31408;45.468;9.124;2022-09-27T02:26:14;13.65;;;6.90;;
45694;SDS011;31408;45.468;9.124;2022-09-27T02:28:57;13.35;;;6.88;;
45694;SDS011;31408;45.468;9.124;2022-09-27T02:31:29;11.57;;;6.57;;
45694;SDS011;31408;45.468;9.124;2022-09-27T02:34:00;10.85;;;6.25;;
45694;SDS011;31408;45.468;9.124;2022-09-27T02:36:27;12.93;;;7.50;;
45694;SDS011;31408;45.468;9.124;2022-09-27T02:38:52;12.73;;;6.97;;
45694;SDS011;31408;45.468;9.124;2022-09-27T02:41:20;14.13;;;6.80;;
45694;SDS011;31408;45.468;9.124;2022-09-27T02:43:47;14.85;;;7.15;;
45694;SDS011;31408;45.468;9.124;2022-09-27T02:48:47;13.38;;;7.22;;
45694;SDS011;31408;45.468;9.124;2022-09-27T02:53:57;14.32;;;8.45;;
45694;SDS011;31408;45.468;9.124;2022-09-27T02:56:49;14.77;;;8.05;;
45694;SDS011;31408;45.468;9.124;2022-09-27T03:02:20;20.60;;;9.38;;
45694;SDS011;31408;45.468;9.124;2022-09-27T03:05:09;19.00;;;9.05;;
45694;SDS011;31408;45.468;9.124;2022-09-27T03:07:36;18.58;;;10.00;;
45694;SDS011;31408;45.468;9.124;2022-09-27T03:10:03;18.95;;;9.65;;
45694;SDS011;31408;45.468;9.124;2022-09-27T03:12:28;22.55;;;9.00;;
45694;SDS011;31408;45.468;9.124;2022-09-27T03:14:55;19.30;;;10.30;;
45694;SDS011;31408;45.468;9.124;2022-09-27T03:17:41;16.92;;;9.55;;
45694;SDS011;31408;45.468;9.124;2022-09-27T03:20:26;18.48;;;10.02;;
45694;SDS011;31408;45.468;9.124;2022-09-27T03:23:02;18.20;;;9.82;;
45694;SDS011;31408;45.468;9.124;2022-09-27T03:25:28;17.92;;;10.25;;
45694;SDS011;31408;45.468;9.124;2022-09-27T03:27:53;18.92;;;9.98;;
45694;SDS011;31408;45.468;9.124;2022-09-27T03:30:18;17.33;;;9.88;;
45694;SDS011;31408;45.468;9.124;2022-09-27T03:32:44;17.08;;;8.93;;
45694;SDS011;31408;45.468;9.124;2022-09-27T03:35:19;19.55;;;10.85;;
45694;SDS011;31408;45.468;9.124;2022-09-27T03:37:44;19.05;;;9.68;;
45694;SDS011;31408;45.468;9.124;2022-09-27T03:40:11;19.38;;;11.32;;
45694;SDS011;31408;45.468;9.124;2022-09-27T03:42:37;17.65;;;9.63;;
45694;SDS011;31408;45.468;9.124;2022-09-27T03:45:02;19.10;;;9.95;;
45694;SDS011;31408;45.468;9.124;2022-09-27T03:47:28;20.10;;;10.43;;
45694;SDS011;31408;45.468;9.124;2022-09-27T03:49:53;21.00;;;9.88;;
45694;SDS011;31408;45.468;9.124;2022-09-27T03:52:18;20.85;;;10.48;;
45694;SDS011;31408;45.468;9.124;2022-09-27T03:54:44;21.95;;;11.13;;
45694;SDS011;31408;45.468;9.124;2022-09-27T03:57:10;20.88;;;10.65;;
45694;SDS011;31408;45.468;9.124;2022-09-27T03:59:36;21.80;;;11.25;;
45694;SDS011;31408;45.468;9.124;2022-09-27T04:02:40;21.08;;;10.57;;
45694;SDS011;31408;45.468;9.124;2022-09-27T04:05:21;18.23;;;9.50;;
45694;SDS011;31408;45.468;9.124;2022-09-27T04:07:49;21.00;;;10.60;;
45694;SDS011;31408;45.468;9.124;2022-09-27T04:10:16;17.45;;;9.35;;
45694;SDS011;31408;45.468;9.124;2022-09-27T04:12:42;21.35;;;10.77;;
45694;SDS011;31408;45.468;9.124;2022-09-27T04:15:08;19.55;;;10.20;;
45694;SDS011;31408;45.468;9.124;2022-09-27T04:17:42;22.65;;;11.25;;
45694;SDS011;31408;45.468;9.124;2022-09-27T04:20:26;18.77;;;9.95;;
45694;SDS011;31408;45.468;9.124;2022-09-27T04:22:52;17.83;;;10.35;;
45694;SDS011;31408;45.468;9.124;2022-09-27T04:25:18;19.80;;;10.68;;
45694;SDS011;31408;45.468;9.124;2022-09-27T04:27:45;22.42;;;11.07;;
45694;SDS011;31408;45.468;9.124;2022-09-27T04:30:13;22.05;;;11.35;;
45694;SDS011;31408;45.468;9.124;2022-09-27T04:32:57;20.05;;;10.85;;
45694;SDS011;31408;45.468;9.124;2022-09-27T04:38:24;22.55;;;12.07;;
45694;SDS011;31408;45.468;9.124;2022-09-27T04:40:49;23.40;;;12.02;;
45694;SDS011;31408;45.468;9.124;2022-09-27T04:43:15;20.23;;;11.27;;
45694;SDS011;31408;45.468;9.124;2022-09-27T04:45:44;23.60;;;11.70;;
45694;SDS011;31408;45.468;9.124;2022-09-27T04:48:10;21.55;;;11.15;;
45694;SDS011;31408;45.468;9.124;2022-09-27T04:50:36;20.50;;;11.73;;
45694;SDS011;31408;45.468;9.124;2022-09-27T04:53:02;23.90;;;11.45;;
45694;SDS011;31408;45.468;9.124;2022-09-27T04:55:27;24.88;;;11.80;;
45694;SDS011;31408;45.468;9.124;2022-09-27T04:57:53;21.73;;;11.02;;
45694;SDS011;31408;45.468;9.124;2022-09-27T05:00:18;22.67;;;12.27;;
45694;SDS011;31408;45.468;9.124;2022-09-27T05:02:47;23.83;;;12.77;;
45694;SDS011;31408;45.468;9.124;2022-09-27T05:05:31;23.63;;;12.35;;
45694;SDS011;31408;45.468;9.124;2022-09-27T05:07:56;25.15;;;13.52;;
45694;SDS011;31408;45.468;9.124;2022-09-27T05:10:31;27.42;;;13.50;;
45694;SDS011;31408;45.468;9.124;2022-09-27T05:12:57;24.25;;;12.75;;
45694;SDS011;31408;45.468;9.124;2022-09-27T05:15:22;26.60;;;13.98;;
45694;SDS011;31408;45.468;9.124;2022-09-27T05:18:06;23.48;;;12.02;;
45694;SDS011;31408;45.468;9.124;2022-09-27T05:20:51;21.60;;;11.85;;
45694;SDS011;31408;45.468;9.124;2022-09-27T05:23:28;21.95;;;12.10;;
45694;SDS011;31408;45.468;9.124;2022-09-27T05:25:53;24.05;;;12.48;;
45694;SDS011;31408;45.468;9.124;2022-09-27T05:28:20;25.83;;;12.68;;
45694;SDS011;31408;45.468;9.124;2022-09-27T05:30:46;25.75;;;13.30;;
45694;SDS011;31408;45.468;9.124;2022-09-27T05:33:17;22.40;;;12.43;;
45694;SDS011;31408;45.468;9.124;2022-09-27T05:35:55;28.88;;;13.57;;
45694;SDS011;31408;45.468;9.124;2022-09-27T05:38:24;25.15;;;12.88;;
45694;SDS011;31408;45.468;9.124;2022-09-27T05:40:53;23.85;;;12.55;;
45694;SDS011;31408;45.468;9.124;2022-09-27T05:43:19;24.23;;;12.57;;
45694;SDS011;31408;45.468;9.124;2022-09-27T05:45:46;22.45;;;12.88;;
45694;SDS011;31408;45.468;9.124;2022-09-27T05:48:14;27.13;;;14.15;;
45694;SDS011;31408;45.468;9.124;2022-09-27T05:50:50;25.92;;;14.60;;
45694;SDS011;31408;45.468;9.124;2022-09-27T05:53:16;29.15;;;14.52;;
45694;SDS011;31408;45.468;9.124;2022-09-27T05:55:41;27.65;;;14.68;;
45694;SDS011;31408;45.468;9.124;2022-09-27T05:58:09;28.33;;;15.30;;
45694;SDS011;31408;45.468;9.124;2022-09-27T06:00:43;25.17;;;13.68;;
45694;SDS011;31408;45.468;9.124;2022-09-27T06:03:28;24.17;;;12.18;;
45694;SDS011;31408;45.468;9.124;2022-09-27T06:06:20;23.23;;;12.98;;
45694;SDS011;31408;45.468;9.124;2022-09-27T06:08:52;24.52;;;12.60;;
45694;SDS011;31408;45.468;9.124;2022-09-27T06:11:18;19.83;;;11.43;;
45694;SDS011;31408;45.468;9.124;2022-09-27T06:13:44;20.38;;;11.85;;
45694;SDS011;31408;45.468;9.124;2022-09-27T06:16:10;23.35;;;12.40;;
45694;SDS011;31408;45.468;9.124;2022-09-27T06:18:37;19.25;;;12.00;;
45694;SDS011;31408;45.468;9.124;2022-09-27T06:21:03;21.65;;;12.10;;
45694;SDS011;31408;45.468;9.124;2022-09-27T06:23:29;23.95;;;12.90;;
45694;SDS011;31408;45.468;9.124;2022-09-27T06:26:02;19.60;;;10.98;;
45694;SDS011;31408;45.468;9.124;2022-09-27T06:28:47;19.58;;;10.85;;
45694;SDS011;31408;45.468;9.124;2022-09-27T06:31:15;19.17;;;10.60;;
45694;SDS011;31408;45.468;9.124;2022-09-27T06:33:51;20.88;;;11.52;;
45694;SDS011;31408;45.468;9.124;2022-09-27T06:36:16;24.35;;;11.85;;
45694;SDS011;31408;45.468;9.124;2022-09-27T06:38:42;20.90;;;10.50;;
45694;SDS011;31408;45.468;9.124;2022-09-27T06:41:18;18.17;;;9.68;;
45694;SDS011;31408;45.468;9.124;2022-09-27T06:44:02;18.08;;;10.13;;
45694;SDS011;31408;45.468;9.124;2022-09-27T06:46:46;20.58;;;10.48;;
45694;SDS011;31408;45.468;9.124;2022-09-27T06:49:29;19.38;;;9.50;;
45694;SDS011;31408;45.468;9.124;2022-09-27T06:51:56;16.30;;;9.05;;
45694;SDS011;31408;45.468;9.124;2022-09-27T06:54:21;20.58;;;11.10;;
45694;SDS011;31408;45.468;9.124;2022-09-27T06:56:46;21.60;;;10.38;;
45694;SDS011;31408;45.468;9.124;2022-09-27T06:59:12;17.20;;;9.68;;
45694;SDS011;31408;45.468;9.124;2022-09-27T07:02:15;22.45;;;9.50;;
45694;SDS011;31408;45.468;9.124;2022-09-27T07:04:56;20.25;;;10.40;;
45694;SDS011;31408;45.468;9.124;2022-09-27T07:07:41;17.33;;;9.82;;
45694;SDS011;31408;45.468;9.124;2022-09-27T07:10:09;18.70;;;10.73;;
45694;SDS011;31408;45.468;9.124;2022-09-27T07:12:35;18.27;;;10.25;;
45694;SDS011;31408;45.468;9.124;2022-09-27T07:15:02;20.02;;;11.10;;
45694;SDS011;31408;45.468;9.124;2022-09-27T07:17:28;20.35;;;10.70;;
45694;SDS011;31408;45.468;9.124;2022-09-27T07:19:53;22.85;;;12.13;;
45694;SDS011;31408;45.468;9.124;2022-09-27T07:22:19;19.27;;;11.18;;
45694;SDS011;31408;45.468;9.124;2022-09-27T07:24:50;22.27;;;10.82;;
45694;SDS011;31408;45.468;9.124;2022-09-27T07:27:16;22.98;;;12.10;;
45694;SDS011;31408;45.468;9.124;2022-09-27T07:29:42;20.92;;;12.00;;
45694;SDS011;31408;45.468;9.124;2022-09-27T07:32:07;23.60;;;12.85;;
45694;SDS011;31408;45.468;9.124;2022-09-27T07:34:33;20.73;;;12.45;;
45694;SDS011;31408;45.468;9.124;2022-09-27T07:36:59;23.95;;;12.95;;
45694;SDS011;31408;45.468;9.124;2022-09-27T07:39:26;22.67;;;12.00;;
45694;SDS011;31408;45.468;9.124;2022-09-27T07:41:52;21.55;;;12.70;;
45694;SDS011;31408;45.468;9.124;2022-09-27T07:44:18;19.85;;;11.43;;
45694;SDS011;31408;45.468;9.124;2022-09-27T07:47:06;19.65;;;11.00;;
45694;SDS011;31408;45.468;9.124;2022-09-27T07:49:52;20.10;;;10.82;;
45694;SDS011;31408;45.468;9.124;2022-09-27T07:52:50;21.45;;;11.52;;
45694;SDS011;31408;45.468;9.124;2022-09-27T07:55:51;20.77;;;11.52;;
45694;SDS011;31408;45.468;9.124;2022-09-27T07:58:20;20.50;;;11.43;;
45694;SDS011;31408;45.468;9.124;2022-09-27T08:00:48;22.77;;;10.65;;
45694;SDS011;31408;45.468;9.124;2022-09-27T08:03:14;23.60;;;11.60;;
45694;SDS011;31408;45.468;9.124;2022-09-27T08:05:40;20.38;;;11.50;;
45694;SDS011;31408;45.468;9.124;2022-09-27T08:08:06;19.45;;;11.45;;
45694;SDS011;31408;45.468;9.124;2022-09-27T08:10:32;20.73;;;11.27;;
45694;SDS011;31408;45.468;9.124;2022-09-27T08:13:03;17.23;;;10.60;;
45694;SDS011;31408;45.468;9.124;2022-09-27T08:15:31;21.63;;;11.88;;
45694;SDS011;31408;45.468;9.124;2022-09-27T08:17:57;20.40;;;10.77;;
45694;SDS011;31408;45.468;9.124;2022-09-27T08:20:54;17.92;;;10.43;;
45694;SDS011;31408;45.468;9.124;2022-09-27T08:23:25;22.10;;;11.18;;
45694;SDS011;31408;45.468;9.124;2022-09-27T08:26:06;22.05;;;10.70;;
45694;SDS011;31408;45.468;9.124;2022-09-27T08:28:53;20.08;;;10.30;;
45694;SDS011;31408;45.468;9.124;2022-09-27T08:31:22;21.63;;;10.73;;
45694;SDS011;31408;45.468;9.124;2022-09-27T08:33:50;20.42;;;10.02;;
45694;SDS011;31408;45.468;9.124;2022-09-27T08:36:16;17.58;;;9.70;;
45694;SDS011;31408;45.468;9.124;2022-09-27T08:38:42;16.15;;;10.05;;
45694;SDS011;31408;45.468;9.124;2022-09-27T08:46:12;16.45;;;9.10;;
45694;SDS011;31408;45.468;9.124;2022-09-27T08:51:05;15.60;;;8.48;;
45694;SDS011;31408;45.468;9.124;2022-09-27T08:53:34;18.30;;;9.85;;
45694;SDS011;31408;45.468;9.124;2022-09-27T08:56:02;14.88;;;8.75;;
45694;SDS011;31408;45.468;9.124;2022-09-27T08:58:47;14.25;;;8.30;;
45694;SDS011;31408;45.468;9.124;2022-09-27T09:01:21;17.20;;;9.25;;
45694;SDS011;31408;45.468;9.124;2022-09-27T09:03:57;16.88;;;8.23;;
45694;SDS011;31408;45.468;9.124;2022-09-27T09:06:27;16.42;;;9.75;;
45694;SDS011;31408;45.468;9.124;2022-09-27T09:09:00;17.25;;;9.55;;
45694;SDS011;31408;45.468;9.124;2022-09-27T09:29:24;17.27;;;8.82;;
45694;SDS011;31408;45.468;9.124;2022-09-27T09:34:38;16.08;;;8.40;;
45694;SDS011;31408;45.468;9.124;2022-09-27T09:37:10;12.88;;;7.78;;
45694;SDS011;31408;45.468;9.124;2022-09-27T09:42:10;14.40;;;7.80;;
45694;SDS011;31408;45.468;9.124;2022-09-27T09:44:41;11.02;;;6.40;;
45694;SDS011;31408;45.468;9.124;2022-09-27T09:47:25;14.50;;;7.35;;
45694;SDS011;31408;45.468;9.124;2022-09-27T09:49:57;15.98;;;8.38;;
45694;SDS011;31408;45.468;9.124;2022-09-27T09:52:25;14.65;;;7.40;;
45694;SDS011;31408;45.468;9.124;2022-09-27T09:54:53;15.02;;;8.30;;
45694;SDS011;31408;45.468;9.124;2022-09-27T10:04:54;18.05;;;9.52;;
45694;SDS011;31408;45.468;9.124;2022-09-27T10:07:20;16.70;;;9.65;;
45694;SDS011;31408;45.468;9.124;2022-09-27T10:09:47;12.48;;;7.60;;
45694;SDS011;31408;45.468;9.124;2022-09-27T10:12:32;19.00;;;8.82;;
45694;SDS011;31408;45.468;9.124;2022-09-27T10:14:59;15.88;;;9.15;;
45694;SDS011;31408;45.468;9.124;2022-09-27T10:17:27;14.10;;;8.07;;
45694;SDS011;31408;45.468;9.124;2022-09-27T10:19:57;13.60;;;7.60;;
45694;SDS011;31408;45.468;9.124;2022-09-27T10:22:28;19.35;;;9.30;;
45694;SDS011;31408;45.468;9.124;2022-09-27T10:25:00;10.32;;;6.70;;
45694;SDS011;31408;45.468;9.124;2022-09-27T10:28:00;13.00;;;6.57;;
45694;SDS011;31408;45.468;9.124;2022-09-27T10:30:30;15.70;;;8.68;;
45694;SDS011;31408;45.468;9.124;2022-09-27T10:32:58;17.33;;;9.10;;
45694;SDS011;31408;45.468;9.124;2022-09-27T10:35:43;14.63;;;9.02;;
45694;SDS011;31408;45.468;9.124;2022-09-27T10:38:20;17.17;;;9.05;;
45694;SDS011;31408;45.468;9.124;2022-09-27T10:40:51;8.95;;;5.82;;
45694;SDS011;31408;45.468;9.124;2022-09-27T10:43:32;8.13;;;5.15;;
45694;SDS011;31408;45.468;9.124;2022-09-27T10:49:06;10.82;;;6.03;;
45694;SDS011;31408;45.468;9.124;2022-09-27T10:51:32;13.20;;;7.47;;
45694;SDS011;31408;45.468;9.124;2022-09-27T10:53:58;9.85;;;6.32;;
45694;SDS011;31408;45.468;9.124;2022-09-27T10:56:32;14.18;;;7.50;;
45694;SDS011;31408;45.468;9.124;2022-09-27T10:58:59;10.80;;;6.53;;
45694;SDS011;31408;45.468;9.124;2022-09-27T11:01:43;11.40;;;6.68;;
45694;SDS011;31408;45.468;9.124;2022-09-27T11:04:30;8.95;;;5.68;;
45694;SDS011;31408;45.468;9.124;2022-09-27T11:07:05;10.18;;;5.63;;
45694;SDS011;31408;45.468;9.124;2022-09-27T11:09:31;7.97;;;5.43;;
45694;SDS011;31408;45.468;9.124;2022-09-27T11:12:19;7.35;;;4.55;;
45694;SDS011;31408;45.468;9.124;2022-09-27T11:15:04;10.05;;;5.85;;
45694;SDS011;31408;45.468;9.124;2022-09-27T11:28:05;8.98;;;5.45;;
45694;SDS011;31408;45.468;9.124;2022-09-27T11:30:44;9.27;;;5.70;;
45694;SDS011;31408;45.468;9.124;2022-09-27T11:43:35;9.10;;;5.90;;
45694;SDS011;31408;45.468;9.124;2022-09-27T11:56:47;11.32;;;6.03;;
45694;SDS011;31408;45.468;9.124;2022-09-27T12:01:49;14.70;;;6.63;;
45694;SDS011;31408;45.468;9.124;2022-09-27T12:04:28;11.73;;;5.68;;
45694;SDS011;31408;45.468;9.124;2022-09-27T12:06:58;13.07;;;6.90;;
45694;SDS011;31408;45.468;9.124;2022-09-27T12:09:40;12.20;;;7.10;;
45694;SDS011;31408;45.468;9.124;2022-09-27T12:12:12;11.05;;;6.60;;
45694;SDS011;31408;45.468;9.124;2022-09-27T12:15:00;11.80;;;6.77;;
45694;SDS011;31408;45.468;9.124;2022-09-27T12:17:26;12.63;;;6.97;;
45694;SDS011;31408;45.468;9.124;2022-09-27T12:19:56;14.02;;;6.10;;
45694;SDS011;31408;45.468;9.124;2022-09-27T12:25:19;8.63;;;5.47;;
45694;SDS011;31408;45.468;9.124;2022-09-27T12:27:54;9.05;;;5.10;;
45694;SDS011;31408;45.468;9.124;2022-09-27T12:30:21;9.70;;;6.18;;
45694;SDS011;31408;45.468;9.124;2022-09-27T12:35:22;8.15;;;4.40;;
45694;SDS011;31408;45.468;9.124;2022-09-27T12:37:51;7.80;;;5.15;;
45694;SDS011;31408;45.468;9.124;2022-09-27T12:40:24;8.57;;;5.90;;
45694;SDS011;31408;45.468;9.124;2022-09-27T12:51:13;11.30;;;5.97;;
45694;SDS011;31408;45.468;9.124;2022-09-27T12:56:31;13.73;;;6.38;;
45694;SDS011;31408;45.468;9.124;2022-09-27T13:04:15;18.35;;;9.45;;
45694;SDS011;31408;45.468;9.124;2022-09-27T13:09:20;16.23;;;7.30;;
45694;SDS011;31408;45.468;9.124;2022-09-27T13:12:13;10.88;;;5.88;;
45694;SDS011;31408;45.468;9.124;2022-09-27T13:19:53;11.93;;;6.25;;
45694;SDS011;31408;45.468;9.124;2022-09-27T13:22:37;6.93;;;4.43;;
45694;SDS011;31408;45.468;9.124;2022-09-27T13:31:13;9.73;;;6.10;;
45694;SDS011;31408;45.468;9.124;2022-09-27T13:42:06;7.65;;;4.55;;
45694;SDS011;31408;45.468;9.124;2022-09-27T13:44:46;11.95;;;5.80;;
45694;SDS011;31408;45.468;9.124;2022-09-27T13:49:50;8.57;;;4.72;;
45694;SDS011;31408;45.468;9.124;2022-09-27T14:00:49;8.27;;;4.53;;
45694;SDS011;31408;45.468;9.124;2022-09-27T14:03:20;16.75;;;7.68;;
45694;SDS011;31408;45.468;9.124;2022-09-27T14:05:53;12.45;;;5.38;;
45694;SDS011;31408;45.468;9.124;2022-09-27T14:08:25;21.25;;;9.95;;
45694;SDS011;31408;45.468;9.124;2022-09-27T14:10:53;6.07;;;4.53;;
45694;SDS011;31408;45.468;9.124;2022-09-27T14:13:19;10.43;;;5.00;;
45694;SDS011;31408;45.468;9.124;2022-09-27T14:15:55;18.30;;;9.85;;
45694;SDS011;31408;45.468;9.124;2022-09-27T14:18:22;9.15;;;4.03;;
45694;SDS011;31408;45.468;9.124;2022-09-27T14:20:49;6.32;;;3.25;;
45694;SDS011;31408;45.468;9.124;2022-09-27T14:23:39;12.07;;;4.85;;
45694;SDS011;31408;45.468;9.124;2022-09-27T14:26:05;18.25;;;5.20;;
45694;SDS011;31408;45.468;9.124;2022-09-27T14:28:30;9.73;;;4.88;;
45694;SDS011;31408;45.468;9.124;2022-09-27T14:31:20;8.90;;;4.13;;
45694;SDS011;31408;45.468;9.124;2022-09-27T14:34:07;8.90;;;4.13;;
45694;SDS011;31408;45.468;9.124;2022-09-27T14:36:38;8.82;;;3.95;;
45694;SDS011;31408;45.468;9.124;2022-09-27T14:39:33;7.35;;;3.35;;
45694;SDS011;31408;45.468;9.124;2022-09-27T14:42:16;6.50;;;4.30;;
45694;SDS011;31408;45.468;9.124;2022-09-27T14:44:44;7.68;;;4.38;;
45694;SDS011;31408;45.468;9.124;2022-09-27T14:47:20;6.45;;;4.00;;
45694;SDS011;31408;45.468;9.124;2022-09-27T14:49:47;7.05;;;4.10;;
45694;SDS011;31408;45.468;9.124;2022-09-27T14:52:17;7.00;;;4.47;;
45694;SDS011;31408;45.468;9.124;2022-09-27T14:54:43;4.13;;;3.33;;
45694;SDS011;31408;45.468;9.124;2022-09-27T14:57:12;6.07;;;3.72;;
45694;SDS011;31408;45.468;9.124;2022-09-27T14:59:39;6.25;;;3.10;;
45694;SDS011;31408;45.468;9.124;2022-09-27T15:02:13;4.55;;;3.13;;
45694;SDS011;31408;45.468;9.124;2022-09-27T15:04:41;5.32;;;3.22;;
45694;SDS011;31408;45.468;9.124;2022-09-27T15:07:08;5.55;;;3.10;;
45694;SDS011;31408;45.468;9.124;2022-09-27T15:09:33;5.43;;;3.05;;
45694;SDS011;31408;45.468;9.124;2022-09-27T15:11:59;8.45;;;4.00;;
45694;SDS011;31408;45.468;9.124;2022-09-27T15:14:25;5.45;;;3.75;;
45694;SDS011;31408;45.468;9.124;2022-09-27T15:16:53;13.45;;;6.15;;
45694;SDS011;31408;45.468;9.124;2022-09-27T15:19:26;12.55;;;6.00;;
45694;SDS011;31408;45.468;9.124;2022-09-27T15:21:52;11.93;;;6.00;;
45694;SDS011;31408;45.468;9.124;2022-09-27T15:27:01;12.60;;;3.15;;
45694;SDS011;31408;45.468;9.124;2022-09-27T15:29:27;10.70;;;3.90;;
45694;SDS011;31408;45.468;9.124;2022-09-27T15:32:02;7.63;;;3.80;;
45694;SDS011;31408;45.468;9.124;2022-09-27T15:34:33;9.10;;;3.60;;
45694;SDS011;31408;45.468;9.124;2022-09-27T15:37:00;5.40;;;3.30;;
45694;SDS011;31408;45.468;9.124;2022-09-27T15:39:29;6.25;;;2.53;;
45694;SDS011;31408;45.468;9.124;2022-09-27T15:42:04;6.28;;;2.47;;
45694;SDS011;31408;45.468;9.124;2022-09-27T15:45:07;3.60;;;2.40;;
45694;SDS011;31408;45.468;9.124;2022-09-27T15:49:58;10.80;;;5.57;;
45694;SDS011;31408;45.468;9.124;2022-09-27T15:55:12;15.73;;;8.02;;
45694;SDS011;31408;45.468;9.124;2022-09-27T15:57:38;5.32;;;2.78;;
45694;SDS011;31408;45.468;9.124;2022-09-27T16:00:04;3.15;;;2.13;;
45694;SDS011;31408;45.468;9.124;2022-09-27T16:02:37;2.00;;;1.67;;
45694;SDS011;31408;45.468;9.124;2022-09-27T16:05:02;4.70;;;2.40;;
45694;SDS011;31408;45.468;9.124;2022-09-27T16:07:28;4.53;;;2.20;;
45694;SDS011;31408;45.468;9.124;2022-09-27T16:09:54;3.78;;;2.20;;
45694;SDS011;31408;45.468;9.124;2022-09-27T16:12:20;2.70;;;1.58;;
45694;SDS011;31408;45.468;9.124;2022-09-27T16:14:45;3.58;;;1.70;;
45694;SDS011;31408;45.468;9.124;2022-09-27T16:17:11;2.53;;;1.60;;
45694;SDS011;31408;45.468;9.124;2022-09-27T16:19:39;4.07;;;2.47;;
45694;SDS011;31408;45.468;9.124;2022-09-27T16:22:05;3.47;;;2.15;;
45694;SDS011;31408;45.468;9.124;2022-09-27T16:24:31;4.97;;;2.78;;
45694;SDS011;31408;45.468;9.124;2022-09-27T16:26:57;5.03;;;2.58;;
45694;SDS011;31408;45.468;9.124;2022-09-27T16:29:23;4.88;;;2.22;;
45694;SDS011;31408;45.468;9.124;2022-09-27T16:31:48;2.45;;;1.90;;
45694;SDS011;31408;45.468;9.124;2022-09-27T16:34:14;5.40;;;2.22;;
45694;SDS011;31408;45.468;9.124;2022-09-27T16:36:40;5.30;;;2.75;;
45694;SDS011;31408;45.468;9.124;2022-09-27T16:39:06;4.88;;;2.85;;
45694;SDS011;31408;45.468;9.124;2022-09-27T16:41:32;7.50;;;3.33;;
45694;SDS011;31408;45.468;9.124;2022-09-27T16:43:58;11.10;;;4.43;;
45694;SDS011;31408;45.468;9.124;2022-09-27T16:46:23;17.45;;;6.07;;
45694;SDS011;31408;45.468;9.124;2022-09-27T16:48:49;33.67;;;12.80;;
45694;SDS011;31408;45.468;9.124;2022-09-27T16:51:19;39.15;;;17.88;;
45694;SDS011;31408;45.468;9.124;2022-09-27T16:54:08;52.22;;;19.70;;
45694;SDS011;31408;45.468;9.124;2022-09-27T16:56:34;25.55;;;10.48;;
45694;SDS011;31408;45.468;9.124;2022-09-27T16:58:59;14.45;;;5.70;;
45694;SDS011;31408;45.468;9.124;2022-09-27T17:01:27;6.97;;;3.55;;
45694;SDS011;31408;45.468;9.124;2022-09-27T17:03:52;5.13;;;2.72;;
45694;SDS011;31408;45.468;9.124;2022-09-27T17:06:18;4.10;;;2.25;;
45694;SDS011;31408;45.468;9.124;2022-09-27T17:08:44;5.50;;;2.95;;
45694;SDS011;31408;45.468;9.124;2022-09-27T17:11:16;8.45;;;4.18;;
45694;SDS011;31408;45.468;9.124;2022-09-27T17:13:47;4.80;;;2.50;;
45694;SDS011;31408;45.468;9.124;2022-09-27T17:16:13;2.47;;;1.77;;
45694;SDS011;31408;45.468;9.124;2022-09-27T17:18:39;5.68;;;2.40;;
45694;SDS011;31408;45.468;9.124;2022-09-27T17:21:05;11.75;;;2.45;;
45694;SDS011;31408;45.468;9.124;2022-09-27T17:23:31;5.38;;;2.50;;
45694;SDS011;31408;45.468;9.124;2022-09-27T17:26:00;11.40;;;3.58;;
45694;SDS011;31408;45.468;9.124;2022-09-27T17:28:27;8.27;;;2.78;;
45694;SDS011;31408;45.468;9.124;2022-09-27T17:30:52;8.30;;;3.40;;
45694;SDS011;31408;45.468;9.124;2022-09-27T17:33:20;5.85;;;2.72;;
45694;SDS011;31408;45.468;9.124;2022-09-27T17:35:45;6.40;;;2.97;;
45694;SDS011;31408;45.468;9.124;2022-09-27T17:38:11;4.68;;;2.47;;
45694;SDS011;31408;45.468;9.124;2022-09-27T17:40:37;5.13;;;3.05;;
45694;SDS011;31408;45.468;9.124;2022-09-27T17:43:02;16.75;;;3.80;;
45694;SDS011;31408;45.468;9.124;2022-09-27T17:45:30;15.02;;;4.18;;
45694;SDS011;31408;45.468;9.124;2022-09-27T17:47:57;17.50;;;4.00;;
45694;SDS011;31408;45.468;9.124;2022-09-27T17:50:44;10.32;;;4.22;;
45694;SDS011;31408;45.468;9.124;2022-09-27T17:53:09;11.02;;;3.83;;
45694;SDS011;31408;45.468;9.124;2022-09-27T17:55:35;22.38;;;6.25;;